Flight Track Log - Related Links

Times and Time Zones

All times are in EDT time to prevent confusion due to time zone crossing. See the DAL268 flight status page for this flight to view local times or setup timezone preferences in your user account.

Time Position Orientation Groundspeed Altitude Reporting Facility
EDT Latitude Longitude Course Direction KTS MPH feet Rate Location/Type
Wed 02:26:12 PM 37.6090 -122.3840 180° South  Level FlightAware ADS-B
Wed 02:29:00 PM 37.6892 -122.1159 67° East  Level FlightAware Approximate
Wed 02:31:00 PM 37.6987 -122.0871 67° East  Level FlightAware Approximate
Wed 02:32:00 PM 37.7529 -121.9464 65° Northeast  Level FlightAware Approximate
Wed 02:33:00 PM 37.8000 -121.8029 90° East  Level FlightAware Approximate
Wed 02:34:00 PM 37.8472 -121.6584 67° East  Level FlightAware Approximate
Wed 02:35:14 PM 37.6060 -122.3820 90° East  Level FlightAware ADS-B
Wed 02:37:00 PM 37.6872 -122.1218 67° East  Level FlightAware Approximate
Wed 02:38:00 PM 37.7404 -121.9807 65° Northeast  Level FlightAware Approximate
Wed 02:38:30 PM 37.6100 -122.3790 28° Northeast 86 99  Level FlightAware ADS-B
Wed 02:38:54 PM 37.6250 -122.3690 28° Northeast 166 191 200 1,135 Climbing FlightAware ADS-B
Wed 02:39:07 PM 37.6342 -122.3630 27° Northeast 177 204 700 2,286 Climbing FlightAware ADS-B
Wed 02:39:15 PM 37.6397 -122.3580 36° Northeast 181 208 1,000 2,308 Climbing FlightAware ADS-B
Wed 02:39:20 PM 37.6428 -122.3550 37° Northeast 184 212 1,200 1,765 Climbing FlightAware ADS-B
Wed 02:39:32 PM 37.6501 -122.3450 47° Northeast 200 230 1,500 1,556 Climbing FlightAware ADS-B
Wed 02:39:47 PM 37.6601 -122.3310 48° Northeast 217 250 1,900 1,800 Climbing FlightAware ADS-B
Wed 02:40:02 PM 37.6707 -122.3170 46° Northeast 235 270 2,400 2,200 Climbing FlightAware ADS-B
Wed 02:40:17 PM 37.6824 -122.3000 49° Northeast 251 289 3,000 2,323 Climbing FlightAware ADS-B
Wed 02:40:33 PM 37.6956 -122.2820 47° Northeast 267 307 3,600 2,813 Climbing FlightAware ADS-B
Wed 02:40:49 PM 37.7087 -122.2630 49° Northeast 269 310 4,500 3,300 Climbing FlightAware ADS-B
Wed 02:41:13 PM 37.7279 -122.2350 49° Northeast 267 307 5,800 3,150 Climbing FlightAware ADS-B
Wed 02:41:29 PM 37.7409 -122.2150 51° Northeast 272 313 6,600 3,000 Climbing FlightAware ADS-B
Wed 02:41:45 PM 37.7533 -122.1950 52° Northeast 281 323 7,400 3,103 Climbing FlightAware ADS-B
Wed 02:41:58 PM 37.7629 -122.1760 57° Northeast 284 327 8,100 3,111 Climbing FlightAware ADS-B
Wed 02:42:12 PM 37.7710 -122.1550 64° Northeast 292 336 8,800 2,897 Climbing FlightAware ADS-B
Wed 02:42:27 PM 37.7772 -122.1300 73° East 300 345 9,500 2,714 Climbing FlightAware ADS-B
Wed 02:42:54 PM 37.7888 -122.0850 72° East 308 354 10,700 1,895 Climbing FlightAware ADS-B
Wed 02:43:24 PM 37.8034 -122.0300 71° East 345 397 11,300 1,147 Climbing FlightAware ADS-B
Wed 02:44:02 PM 37.8241 -121.9540 71° East 377 434 12,000 1,816 Climbing FlightAware ADS-B
Wed 02:44:40 PM 37.8467 -121.8700 71° East 398 458 13,600 2,382 Climbing FlightAware ADS-B
Wed 02:45:10 PM 37.8647 -121.8030 71° East 409 471 14,700 2,250 Climbing FlightAware ADS-B
Wed 02:45:44 PM 37.8856 -121.7270 71° East 413 475 16,000 2,063 Climbing FlightAware ADS-B
Wed 02:46:14 PM 37.9046 -121.6550 71° East 429 494 16,900 1,869 Climbing FlightAware ADS-B
Wed 02:46:45 PM 37.9232 -121.5820 72° East 439 505 17,900 1,969 Climbing FlightAware ADS-B
Wed 02:47:18 PM 37.9440 -121.5000 72° East 447 514 19,000 2,000 Climbing FlightAware ADS-B
Wed 02:47:42 PM 37.9600 -121.4400 71° East 451 519 19,800 1,941 Climbing FlightAware ADS-B
Wed 02:48:26 PM 37.9890 -121.3290 72° East 460 529 21,200 1,829 Climbing FlightAware ADS-B
Wed 02:49:04 PM 38.0150 -121.2320 71° East 468 539 22,300 1,714 Climbing FlightAware ADS-B
Wed 02:49:36 PM 38.0370 -121.1470 72° East 474 545 23,200 1,714 Climbing FlightAware ADS-B
Wed 02:50:14 PM 38.0630 -121.0480 72° East 476 548 24,300 1,703 Climbing FlightAware ADS-B
Wed 02:50:50 PM 38.0880 -120.9510 72° East 482 555 25,300 1,629 Climbing FlightAware ADS-B
Wed 02:51:24 PM 38.1100 -120.8570 73° East 485 558 26,200 1,500 Climbing FlightAware ADS-B
Wed 02:51:58 PM 38.1320 -120.7640 73° East 490 564 27,000 1,268 Climbing FlightAware ADS-B
Wed 02:52:35 PM 38.1560 -120.6650 73° East 496 571 27,700 1,250 Climbing FlightAware ADS-B
Wed 02:53:10 PM 38.1800 -120.5650 73° East 500 575 28,500 1,500 Climbing FlightAware ADS-B
Wed 02:53:43 PM 38.2010 -120.4750 73° East 498 573 29,400 1,391 Climbing FlightAware ADS-B
Wed 02:54:19 PM 38.2250 -120.3720 73° East 502 578 30,100 1,151 Climbing FlightAware ADS-B
Wed 02:54:56 PM 38.2440 -120.2650 77° East 509 586 30,800 1,217 Climbing FlightAware ADS-B
Wed 02:55:28 PM 38.2590 -120.1700 79° East 509 586 31,500 1,114 Climbing FlightAware ADS-B
Wed 02:56:06 PM 38.2770 -120.0630 78° East 513 590 32,100 1,059 Climbing FlightAware ADS-B
Wed 02:56:36 PM 38.2930 -119.9690 78° East 517 595 32,700 1,147 Climbing FlightAware ADS-B
Wed 02:57:14 PM 38.3130 -119.8580 77° East 518 596 33,400 1,167 Climbing FlightAware ADS-B
Wed 02:57:48 PM 38.3290 -119.7620 78° East 515 593 34,100 1,352 Climbing FlightAware ADS-B
Wed 02:58:25 PM 38.3490 -119.6480 77° East 510 587 35,000 1,588 Climbing FlightAware ADS-B
Wed 02:58:56 PM 38.3640 -119.5570 78° East 503 579 35,900 1,183 Climbing FlightAware ADS-B
Wed 02:59:36 PM 38.3840 -119.4400 78° East 507 583 36,400 649 Climbing FlightAware ADS-B
Wed 03:00:10 PM 38.4010 -119.3390 78° East 512 589 36,700 545 Climbing FlightAware ADS-B
Wed 03:00:42 PM 38.4170 -119.2450 78° East 516 594 37,000 234 Climbing FlightAware ADS-B
Wed 03:01:27 PM 38.4370 -119.1260 78° East 516 594 37,000  Level FlightAware ADS-B
Wed 03:02:01 PM 38.4510 -119.0400 78° East 516 594 37,000  Level FlightAware ADS-B
Wed 03:02:36 PM 38.4660 -118.9520 78° East 516 594 37,000  Level FlightAware ADS-B
Wed 03:03:10 PM 38.4800 -118.8650 78° East 516 594 37,000  Level FlightAware ADS-B
Wed 03:03:43 PM 38.5040 -118.7040 79° East 525 604 37,000  Level FlightAware ADS-B
Wed 03:04:23 PM 38.5210 -118.6000 78° East 527 606 37,000  Level FlightAware ADS-B
Wed 03:04:54 PM 38.5380 -118.4870 79° East 530 610 37,000  Level FlightAware ADS-B
Wed 03:05:30 PM 38.5550 -118.3770 79° East 530 610 37,000  Level FlightAware ADS-B
Wed 03:06:07 PM 38.5720 -118.2660 79° East 531 611 37,000  Level FlightAware ADS-B
Wed 03:06:39 PM 38.5870 -118.1640 79° East 532 612 37,000  Level FlightAware ADS-B
Wed 03:07:17 PM 38.6050 -118.0490 79° East 533 613 37,000  Level FlightAware ADS-B
Wed 03:08:00 PM 38.6220 -117.9340 79° East 532 612 37,000  Level FlightAware ADS-B
Wed 03:08:37 PM 38.6370 -117.8360 79° East 532 612 37,000  Level FlightAware ADS-B
Wed 03:09:23 PM 38.6550 -117.7150 79° East 532 612 37,000  Level FlightAware ADS-B
Wed 03:10:02 PM 38.6710 -117.6130 79° East 532 612 37,000  Level FlightAware ADS-B
Wed 03:10:38 PM 38.6850 -117.5180 79° East 532 612 37,000  Level FlightAware ADS-B
Wed 03:11:28 PM 38.7050 -117.3870 79° East 532 612 37,000  Level FlightAware ADS-B
Wed 03:12:07 PM 38.7210 -117.2840 79° East 532 612 37,000  Level FlightAware ADS-B
Wed 03:12:43 PM 38.7350 -117.1890 79° East 532 612 37,000  Level FlightAware ADS-B
Wed 03:13:19 PM 38.7490 -117.0940 79° East 532 612 37,000  Level FlightAware ADS-B
Wed 03:13:55 PM 38.7640 -116.9990 79° East 532 612 37,000  Level FlightAware ADS-B
Wed 03:14:32 PM 38.7780 -116.9020 79° East 532 612 37,000  Level FlightAware ADS-B
Wed 03:15:08 PM 38.7930 -116.8070 79° East 532 612 37,000  Level FlightAware ADS-B
Wed 03:15:44 PM 38.8070 -116.7120 79° East 532 612 37,000  Level FlightAware ADS-B
Wed 03:16:20 PM 38.8210 -116.6170 79° East 532 612 37,000  Level FlightAware ADS-B
Wed 03:16:57 PM 38.8360 -116.5200 79° East 532 612 37,000  Level FlightAware ADS-B
Wed 03:17:53 PM 38.8717 -116.1633 79° East 516 594 37,000  Level Salt Lake Center
Wed 03:18:55 PM 38.8964 -115.9806 80° East 519 597 37,000  Level Salt Lake Center
Wed 03:19:56 PM 38.9253 -115.7606 80° East 520 598 37,000  Level Salt Lake Center
Wed 03:20:58 PM 38.9494 -115.5769 80° East 521 600 37,000  Level Salt Lake Center
Wed 03:22:00 PM 38.9725 -115.3914 81° East 524 603 37,000  Level Salt Lake Center
Wed 03:23:02 PM 38.9964 -115.2175 80° East 528 608 37,000  Level Salt Lake Center
Wed 03:24:04 PM 39.0236 -114.9950 81° East 527 606 37,000  Level Salt Lake Center
Wed 03:30:08 PM 39.1580 -113.8534 81° East 534 615 37,000  Level FlightAware ADS-B
Wed 03:30:43 PM 39.1700 -113.7430 82° East 533 613 37,000  Level FlightAware ADS-B
Wed 03:30:57 PM 39.1754 -113.6982 81° East 533 613 37,000  Level FlightAware ADS-B
Wed 03:31:37 PM 39.1896 -113.5708 82° East 532 612 37,000  Level FlightAware ADS-B
Wed 03:32:10 PM 39.2002 -113.4745 82° East 530 610 37,000  Level FlightAware ADS-B
Wed 03:33:11 PM 39.2244 -113.2821 81° East 531 611 37,000  Level FlightAware ADS-B
Wed 03:33:41 PM 39.2441 -113.1939 74° East 534 615 37,000  Level FlightAware ADS-B
Wed 03:34:23 PM 39.2832 -113.0641 69° East 534 615 37,000  Level FlightAware ADS-B
Wed 03:34:38 PM 39.2973 -113.0180 68° East 534 615 37,000  Level FlightAware ADS-B
Wed 03:35:04 PM 39.3203 -112.9420 69° East 533 613 37,000  Level FlightAware ADS-B
Wed 03:35:09 PM 39.3246 -112.9280 69° East 533 613 37,000  Level FlightAware ADS-B
Wed 03:35:35 PM 39.3465 -112.8564 68° East 532 612 37,000  Level FlightAware ADS-B
Wed 03:35:39 PM 39.3519 -112.8390 68° East 532 612 37,000  Level FlightAware ADS-B
Wed 03:36:09 PM 39.3789 -112.7500 69° East 530 610 37,000  Level FlightAware ADS-B
Wed 03:36:13 PM 39.3815 -112.7419 68° East 530 610 37,000  Level FlightAware ADS-B
Wed 03:36:41 PM 39.4072 -112.6580 68° East 530 610 37,000  Level FlightAware ADS-B
Wed 03:36:45 PM 39.4108 -112.6464 68° East 530 610 37,000  Level FlightAware ADS-B
Wed 03:37:12 PM 39.4358 -112.5650 68° East 531 611 37,000  Level FlightAware ADS-B
Wed 03:37:26 PM 39.4470 -112.5281 69° East 531 611 37,000  Level FlightAware ADS-B
Wed 03:37:45 PM 39.4657 -112.4670 68° East 531 611 37,000  Level FlightAware ADS-B
Wed 03:38:16 PM 39.4929 -112.3780 68° East 530 610 37,000  Level FlightAware ADS-B
Wed 03:38:29 PM 39.5034 -112.3434 68° East 530 610 37,000  Level FlightAware ADS-B
Wed 03:38:52 PM 39.5254 -112.2710 69° East 529 609 37,000  Level FlightAware ADS-B
Wed 03:39:12 PM 39.5430 -112.2132 68° East 530 610 37,000  Level FlightAware ADS-B
Wed 03:39:27 PM 39.5571 -112.1670 68° East 530 610 37,000  Level FlightAware ADS-B
Wed 03:39:42 PM 39.5693 -112.1259 69° East 530 610 37,000  Level FlightAware ADS-B
Wed 03:40:00 PM 39.5863 -112.0700 68° East 530 610 37,000  Level FlightAware ADS-B
Wed 03:40:14 PM 39.5976 -112.0320 69° East 530 610 37,000  Level FlightAware ADS-B
Wed 03:40:40 PM 39.6212 -111.9530 69° East 530 610 37,000  Level FlightAware ADS-B
Wed 03:40:45 PM 39.6251 -111.9401 68° East 530 610 37,000  Level FlightAware ADS-B
Wed 03:41:15 PM 39.6522 -111.8490 69° East 528 608 37,000  Level FlightAware ADS-B
Wed 03:41:45 PM 39.6776 -111.7639 69° East 528 608 37,000  Level FlightAware ADS-B
Wed 03:42:16 PM 39.7055 -111.6700 69° East 528 608 37,000  Level FlightAware ADS-B
Wed 03:42:46 PM 39.7319 -111.5810 69° East 527 606 37,000  Level FlightAware ADS-B
Wed 03:42:48 PM 39.7322 -111.5794 75° East 527 606 37,000  Level FlightAware ADS-B
Wed 03:43:18 PM 39.7594 -111.4870 69° East 526 605 37,000  Level FlightAware ADS-B
Wed 03:43:28 PM 39.7660 -111.4645 69° East 525 604 37,000  Level FlightAware ADS-B
Wed 03:43:51 PM 39.7881 -111.3890 69° East 526 605 37,000  Level FlightAware ADS-B
Wed 03:44:05 PM 39.7996 -111.3499 69° East 525 604 37,000  Level FlightAware ADS-B
Wed 03:44:21 PM 39.8140 -111.3010 69° East 525 604 37,000  Level FlightAware ADS-B
Wed 03:44:44 PM 39.8336 -111.2335 69° East 526 605 37,000  Level FlightAware ADS-B
Wed 03:44:52 PM 39.8404 -111.2100 69° East 525 604 37,000  Level FlightAware ADS-B
Wed 03:45:16 PM 39.8612 -111.1384 69° East 524 603 37,000  Level FlightAware ADS-B
Wed 03:45:22 PM 39.8660 -111.1220 69° East 523 602 37,000  Level FlightAware ADS-B
Wed 03:45:46 PM 39.8869 -111.0497 69° East 523 602 37,000  Level FlightAware ADS-B
Wed 03:45:52 PM 39.8922 -111.0310 70° East 522 601 37,000  Level FlightAware ADS-B
Wed 03:46:20 PM 39.9158 -110.9496 69° East 522 601 37,000  Level FlightAware ADS-B
Wed 03:46:23 PM 39.9178 -110.9430 69° East 522 601 37,000  Level FlightAware ADS-B
Wed 03:46:50 PM 39.9412 -110.8615 69° East 522 601 37,000  Level FlightAware ADS-B
Wed 03:46:54 PM 39.9441 -110.8510 70° East 522 601 37,000  Level FlightAware ADS-B
Wed 03:47:24 PM 39.9687 -110.7654 69° East 522 601 37,000  Level FlightAware ADS-B
Wed 03:47:25 PM 39.9700 -110.7610 68° East 522 601 37,000  Level FlightAware ADS-B
Wed 03:47:54 PM 39.9944 -110.6753 70° East 521 600 37,000  Level FlightAware ADS-B
Wed 03:48:26 PM 40.0211 -110.5816 70° East 520 598 37,000  Level FlightAware ADS-B
Wed 03:48:56 PM 40.0426 -110.5055 70° East 520 598 37,000  Level FlightAware ADS-B
Wed 03:49:32 PM 40.0764 -110.3863 70° East 519 597 37,000  Level FlightAware ADS-B
Wed 03:50:04 PM 40.1014 -110.2971 70° East 519 597 37,000  Level FlightAware ADS-B
Wed 03:50:34 PM 40.1270 -110.2059 70° East 519 597 37,000  Level FlightAware ADS-B
Wed 03:51:09 PM 40.1555 -110.1038 70° East 518 596 37,000  Level FlightAware ADS-B
Wed 03:51:44 PM 40.1854 -110.0017 69° East 518 596 37,000  Level FlightAware ADS-B
Wed 03:52:17 PM 40.2127 -109.9093 69° East 519 597 37,000  Level FlightAware ADS-B
Wed 03:52:57 PM 40.2481 -109.7881 69° East 518 596 37,000  Level FlightAware ADS-B
Wed 03:53:34 PM 40.2784 -109.6837 69° East 517 595 37,000  Level FlightAware ADS-B
Wed 03:54:05 PM 40.3050 -109.5900 70° East 517 595 37,000  Level FlightAware ADS-B
Wed 03:54:15 PM 40.3139 -109.5606 68° East 517 595 37,000  Level FlightAware ADS-B
Wed 03:54:46 PM 40.3381 -109.4763 69° East 518 596 37,000  Level FlightAware ADS-B
Wed 03:55:16 PM 40.3652 -109.3813 69° East 518 596 37,000  Level FlightAware ADS-B
Wed 03:55:48 PM 40.3920 -109.2874 69° East 518 596 37,000  Level FlightAware ADS-B
Wed 03:56:21 PM 40.4192 -109.1914 70° East 517 595 37,000  Level FlightAware ADS-B
Wed 03:56:51 PM 40.4444 -109.1022 70° East 517 595 37,000  Level FlightAware ADS-B
Wed 03:57:22 PM 40.4680 -109.0188 70° East 517 595 37,000  Level FlightAware ADS-B
Wed 03:57:57 PM 40.4992 -108.9075 70° East 516 594 37,000  Level FlightAware ADS-B
Wed 03:58:29 PM 40.5252 -108.8143 70° East 515 593 37,000  Level FlightAware ADS-B
Wed 03:59:08 PM 40.5575 -108.6987 70° East 515 593 37,000  Level FlightAware ADS-B
Wed 03:59:39 PM 40.5821 -108.6104 70° East 514 592 37,000  Level FlightAware ADS-B
Wed 04:00:09 PM 40.6063 -108.5227 70° East 514 592 37,000  Level FlightAware ADS-B
Wed 04:00:40 PM 40.6321 -108.4293 70° East 513 590 37,000  Level FlightAware ADS-B
Wed 04:01:10 PM 40.6563 -108.3410 70° East 513 590 37,000  Level FlightAware ADS-B
Wed 04:01:43 PM 40.6828 -108.2442 70° East 514 592 37,000  Level FlightAware ADS-B
Wed 04:02:13 PM 40.7068 -108.1564 70° East 515 593 37,000  Level FlightAware ADS-B
Wed 04:02:43 PM 40.7307 -108.0685 70° East 514 592 37,000  Level FlightAware ADS-B
Wed 04:03:13 PM 40.7548 -107.9792 70° East 513 590 37,000  Level FlightAware ADS-B
Wed 04:03:57 PM 40.7890 -107.8520 70° East 513 590 37,000  Level FlightAware ADS-B
Wed 04:04:38 PM 40.8204 -107.7355 70° East 513 590 37,000  Level FlightAware ADS-B
Wed 04:05:08 PM 40.8452 -107.6426 71° East 513 590 37,000  Level FlightAware ADS-B
Wed 04:05:38 PM 40.8666 -107.5622 71° East 512 589 37,000  Level FlightAware ADS-B
Wed 04:06:35 PM 40.9080 -107.4140 70° East 512 589 37,000  Level FlightAware ADS-B
Wed 04:07:12 PM 40.9330 -107.3210 70° East 512 589 37,000  Level FlightAware ADS-B
Wed 04:07:48 PM 40.9580 -107.2310 70° East 512 589 37,000  Level FlightAware ADS-B
Wed 04:08:24 PM 40.9830 -107.1410 70° East 512 589 37,000  Level FlightAware ADS-B
Wed 04:09:14 PM 41.0360 -106.9180 72° East 511 588 37,000  Level FlightAware ADS-B
Wed 04:09:52 PM 41.0640 -106.8080 71° East 511 588 37,000  Level FlightAware ADS-B
Wed 04:10:24 PM 41.0880 -106.7150 71° East 511 588 37,000  Level FlightAware ADS-B
Wed 04:10:54 PM 41.1120 -106.6210 71° East 511 588 37,000  Level FlightAware ADS-B
Wed 04:11:42 PM 41.1480 -106.4790 71° East 510 587 37,000  Level FlightAware ADS-B
Wed 04:12:13 PM 41.1720 -106.3870 71° East 509 586 37,000  Level FlightAware ADS-B
Wed 04:12:54 PM 41.2020 -106.2680 71° East 510 587 37,000  Level FlightAware ADS-B
Wed 04:13:28 PM 41.2270 -106.1650 72° East 511 588 37,000  Level FlightAware ADS-B
Wed 04:13:59 PM 41.2500 -106.0750 71° East 510 587 37,000  Level FlightAware ADS-B
Wed 04:14:30 PM 41.2730 -105.9820 72° East 510 587 37,000  Level FlightAware ADS-B
Wed 04:15:05 PM 41.2980 -105.8820 72° East 510 587 37,000  Level FlightAware ADS-B
Wed 04:15:49 PM 41.3310 -105.7500 72° East 509 586 37,000  Level FlightAware ADS-B
Wed 04:16:20 PM 41.3530 -105.6590 72° East 508 585 37,000  Level FlightAware ADS-B
Wed 04:16:56 PM 41.3830 -105.5470 70° East 506 582 37,000  Level FlightAware ADS-B
Wed 04:17:30 PM 41.4080 -105.4520 71° East 504 580 37,000  Level FlightAware ADS-B
Wed 04:18:03 PM 41.4330 -105.3520 72° East 500 575 37,000  Level FlightAware ADS-B
Wed 04:18:40 PM 41.4610 -105.2450 71° East 501 577 37,000  Level FlightAware ADS-B
Wed 04:19:17 PM 41.4880 -105.1370 72° East 501 577 37,000  Level FlightAware ADS-B
Wed 04:19:52 PM 41.5140 -105.0330 72° East 502 578 37,000  Level FlightAware ADS-B
Wed 04:20:25 PM 41.5380 -104.9380 71° East 503 579 37,000  Level FlightAware ADS-B
Wed 04:21:01 PM 41.5650 -104.8330 71° East 501 577 37,000  Level FlightAware ADS-B
Wed 04:21:36 PM 41.5910 -104.7290 71° East 500 575 37,000  Level FlightAware ADS-B
Wed 04:22:11 PM 41.6160 -104.6290 71° East 500 575 37,000  Level FlightAware ADS-B
Wed 04:22:45 PM 41.6410 -104.5270 72° East 498 573 37,000  Level FlightAware ADS-B
Wed 04:23:22 PM 41.6680 -104.4200 71° East 498 573 37,000  Level FlightAware ADS-B
Wed 04:23:58 PM 41.6940 -104.3140 72° East 498 573 37,000  Level FlightAware ADS-B
Wed 04:24:33 PM 41.7180 -104.2130 72° East 497 572 37,000  Level FlightAware ADS-B
Wed 04:25:06 PM 41.7420 -104.1160 72° East 497 572 37,000  Level FlightAware ADS-B
Wed 04:25:41 PM 41.7670 -104.0150 72° East 497 572 37,000  Level FlightAware ADS-B
Wed 04:26:17 PM 41.7920 -103.9080 73° East 497 572 37,000  Level FlightAware ADS-B
Wed 04:26:54 PM 41.8180 -103.8020 72° East 495 570 37,000  Level FlightAware ADS-B
Wed 04:27:25 PM 41.8400 -103.7090 72° East 495 570 37,000  Level FlightAware ADS-B
Wed 04:28:04 PM 41.8660 -103.6010 72° East 495 570 37,000  Level FlightAware ADS-B
Wed 04:28:43 PM 41.8920 -103.4840 73° East 494 568 37,000  Level FlightAware ADS-B
Wed 04:29:16 PM 41.9080 -103.3860 78° East 493 567 37,000  Level FlightAware ADS-B
Wed 04:29:56 PM 41.9240 -103.2840 78° East 493 567 37,000  Level FlightAware ADS-B
Wed 04:30:25 PM 41.9370 -103.1800 80° East 492 566 37,000  Level FlightAware ADS-B
Wed 04:31:04 PM 41.9510 -103.0800 79° East 492 566 37,000  Level FlightAware ADS-B
Wed 04:31:34 PM 41.9660 -102.9710 79° East 491 565 37,000  Level FlightAware ADS-B
Wed 04:32:14 PM 41.9800 -102.8690 80° East 491 565 37,000  Level FlightAware ADS-B
Wed 04:32:48 PM 41.9960 -102.7480 80° East 489 563 37,000  Level FlightAware ADS-B
Wed 04:33:31 PM 42.0110 -102.6430 79° East 489 563 37,000  Level FlightAware ADS-B
Wed 04:34:08 PM 42.0250 -102.5490 79° East 489 563 37,000  Level FlightAware ADS-B
Wed 04:34:44 PM 42.0380 -102.4580 79° East 489 563 37,000  Level FlightAware ADS-B
Wed 04:35:20 PM 42.0510 -102.3660 79° East 489 563 37,000  Level FlightAware ADS-B
Wed 04:35:56 PM 42.0640 -102.2750 79° East 489 563 37,000  Level FlightAware ADS-B
Wed 04:36:32 PM 42.0770 -102.1830 79° East 489 563 37,000  Level FlightAware ADS-B
Wed 04:37:08 PM 42.0910 -102.0920 78° East 489 563 37,000  Level FlightAware ADS-B
Wed 04:37:45 PM 42.1040 -101.9970 80° East 489 563 37,000  Level FlightAware ADS-B
Wed 04:38:21 PM 42.1170 -101.9060 79° East 489 563 37,000  Level FlightAware ADS-B
Wed 04:38:57 PM 42.1310 -101.8140 78° East 489 563 37,000  Level FlightAware ADS-B
Wed 04:39:33 PM 42.1440 -101.7230 79° East 489 563 37,000  Level FlightAware ADS-B
Wed 04:40:09 PM 42.1570 -101.6310 79° East 489 563 37,000  Level FlightAware ADS-B
Wed 04:40:45 PM 42.1700 -101.5390 79° East 489 563 37,000  Level FlightAware ADS-B
Wed 04:41:22 PM 42.1840 -101.4450 79° East 489 563 37,000  Level FlightAware ADS-B
Wed 04:41:58 PM 42.1970 -101.3530 79° East 489 563 37,000  Level FlightAware ADS-B
Wed 04:42:34 PM 42.2100 -101.2620 79° East 489 563 37,000  Level FlightAware ADS-B
Wed 04:43:26 PM 42.2347 -100.8617 79° East 477 549 37,000  Level Denver Center
Wed 04:44:28 PM 42.2547 -100.6925 81° East 476 548 37,000  Level Denver Center
Wed 04:45:30 PM 42.2786 -100.4936 81° East 479 551 37,000  Level Denver Center
Wed 04:46:32 PM 42.2969 -100.3239 82° East 477 549 37,000  Level Denver Center
Wed 04:47:34 PM 42.3194 -100.1275 81° East 476 548 37,000  Level Denver Center
Wed 04:48:36 PM 42.3381 -99.9606 81° East 471 542 37,000  Level Denver Center
Wed 04:49:38 PM 42.3569 -99.7947 81° East 468 539 37,000  Level Denver Center
Wed 04:50:40 PM 42.3744 -99.6214 82° East 471 542 37,000  Level Denver Center
Wed 04:51:42 PM 42.3958 -99.4150 82° East 463 533 37,000 307 Level Denver Center
Wed 04:57:11 PM 42.5443 -98.4633 82° East 485 558 39,000 287 Climbing FlightAware ADS-B
Wed 04:58:40 PM 42.6067 -98.2128 71° East 482 555 39,000  Level FlightAware ADS-B
Wed 04:59:03 PM 42.6244 -98.1412 71° East 480 552 39,000  Level FlightAware ADS-B
Wed 05:02:01 PM 42.7650 -97.6550 68° East 480 552 39,000  Level FlightAware ADS-B
Wed 05:02:43 PM 42.7970 -97.5460 68° East 480 552 39,000  Level FlightAware ADS-B
Wed 05:03:10 PM 42.8229 -97.4661 66° East 484 557 39,000  Level FlightAware ADS-B
Wed 05:03:47 PM 42.8628 -97.3480 65° Northeast 486 559 39,000  Level FlightAware ADS-B
Wed 05:04:33 PM 42.9000 -97.2380 65° Northeast 486 559 39,000  Level FlightAware ADS-B
Wed 05:04:50 PM 42.8791 -97.2996 245° Southwest 486 559 39,000  Level FlightAware ADS-B
Wed 05:05:40 PM 42.9420 -97.1125 65° Northeast 490 564 39,000  Level FlightAware ADS-B
Wed 05:06:22 PM 42.9880 -96.9800 65° Northeast 486 559 39,000  Level FlightAware ADS-B
Wed 05:06:41 PM 43.0190 -96.8600 71° East 490 564 39,000  Level FlightAware ADS-B
Wed 05:07:22 PM 43.0028 -96.9285 252° West 493 567 39,000  Level FlightAware ADS-B
Wed 05:07:59 PM 43.0280 -96.6350 83° East 486 559 39,000  Level FlightAware ADS-B
Wed 05:08:28 PM 43.0251 -96.5343 92° East 488 562 39,000  Level FlightAware ADS-B
Wed 05:09:06 PM 43.0230 -96.4140 91° East 489 563 39,000  Level FlightAware ADS-B
Wed 05:09:37 PM 43.0240 -96.4703 271° West 489 563 39,000  Level FlightAware ADS-B
Wed 05:10:17 PM 43.0170 -96.1950 92° East 491 565 39,000  Level FlightAware ADS-B
Wed 05:10:49 PM 43.0140 -96.0960 92° East 491 565 39,000  Level FlightAware ADS-B
Wed 05:11:28 PM 43.0110 -95.9760 92° East 493 567 39,000  Level FlightAware ADS-B
Wed 05:12:04 PM 43.0070 -95.8640 93° East 493 567 39,000  Level FlightAware ADS-B
Wed 05:12:35 PM 43.0040 -95.7660 92° East 495 570 39,000  Level FlightAware ADS-B
Wed 05:13:11 PM 43.0010 -95.6590 92° East 497 572 39,000  Level FlightAware ADS-B
Wed 05:13:18 PM 43.0000 -95.6328 93° East 498 573 39,000  Level FlightAware ADS-B (LPVM)
Wed 05:13:48 PM 42.9969 -95.5382 93° East 499 574 39,000  Level FlightAware ADS-B (LPVM)
Wed 05:14:20 PM 42.9940 -95.4390 92° East 499 574 39,000  Level FlightAware ADS-B
Wed 05:14:39 PM 42.9916 -95.3777 93° East 500 575 39,000  Level FlightAware ADS-B (LPVM)
Wed 05:15:33 PM 42.9860 -95.2110 93° East 501 577 39,000  Level FlightAware ADS-B
Wed 05:16:06 PM 42.9820 -95.1060 93° East 502 578 39,000  Level FlightAware ADS-B
Wed 05:16:43 PM 42.9780 -94.9870 93° East 502 578 39,000  Level FlightAware ADS-B
Wed 05:17:15 PM 42.9740 -94.8860 93° East 502 578 39,000  Level FlightAware ADS-B
Wed 05:17:40 PM 42.9710 -94.8114 93° East 504 580 39,000  Level FlightAware ADS-B (LPVM)
Wed 05:18:17 PM 42.9662 -94.6907 93° East 504 580 39,000  Level FlightAware ADS-B (LPVM)
Wed 05:19:01 PM 42.9600 -94.5500 93° East 503 579 39,000  Level FlightAware ADS-B
Wed 05:19:19 PM 42.9581 -94.4936 93° East 503 579 39,000  Level FlightAware ADS-B (LPVM)
Wed 05:20:12 PM 42.9510 -94.3260 93° East 502 578 39,000  Level FlightAware ADS-B
Wed 05:20:47 PM 42.9460 -94.2150 93° East 502 578 39,000  Level FlightAware ADS-B
Wed 05:21:24 PM 42.9410 -94.1030 93° East 502 578 39,000  Level FlightAware ADS-B
Wed 05:21:52 PM 42.9369 -94.0106 93° East 503 579 39,000  Level FlightAware ADS-B
Wed 05:21:59 PM 42.9360 -93.9904 94° East 502 578 39,000  Level FlightAware ADS-B (LPVM)
Wed 05:22:30 PM 42.9321 -93.9067 94° East 501 577 39,000  Level FlightAware ADS-B (LPVM)
Wed 05:23:02 PM 42.9265 -93.7900 94° East 499 574 39,000  Level FlightAware ADS-B (LPVM)
Wed 05:23:40 PM 42.9210 -93.6720 94° East 498 573 39,000  Level FlightAware ADS-B
Wed 05:24:18 PM 42.9150 -93.5560 94° East 496 571 39,000  Level FlightAware ADS-B
Wed 05:24:52 PM 42.9100 -93.4480 94° East 494 568 39,000  Level FlightAware ADS-B
Wed 05:25:12 PM 42.9063 -93.3836 94° East 494 568 39,000  Level FlightAware ADS-B (LPVM)
Wed 05:25:58 PM 42.9013 -93.2878 94° East 493 567 39,000  Level FlightAware ADS-B (LPVM)
Wed 05:26:38 PM 42.8930 -93.1240 94° East 491 565 39,000  Level FlightAware ADS-B
Wed 05:27:09 PM 42.8884 -93.0463 95° East 491 565 39,000  Level FlightAware ADS-B (LPVM)
Wed 05:27:40 PM 42.8828 -92.9434 94° East 490 564 39,000  Level FlightAware ADS-B (LPVM)
Wed 05:28:19 PM 42.8752 -92.8081 94° East 490 564 39,000  Level FlightAware ADS-B (LPVM)
Wed 05:28:55 PM 42.8690 -92.7000 94° East 489 563 39,000  Level FlightAware ADS-B
Wed 05:29:06 PM 42.8669 -92.6639 95° East 491 565 39,000  Level FlightAware ADS-B (LPVM)
Wed 05:29:49 PM 42.8598 -92.5424 95° East 491 565 39,000  Level FlightAware ADS-B (LPVM)
Wed 05:30:29 PM 42.8527 -92.4225 95° East 490 564 39,000  Level FlightAware ADS-B (LPVM)
Wed 05:31:15 PM 42.8434 -92.2689 95° East 491 565 39,000  Level FlightAware ADS-B (LPVM)
Wed 05:31:52 PM 42.8370 -92.1580 94° East 491 565 39,000  Level FlightAware ADS-B
Wed 05:31:54 PM 42.8359 -92.1478 99° East 492 566 39,000  Level FlightAware ADS-B (LPVM)
Wed 05:32:25 PM 42.8300 -92.0540 95° East 491 565 39,000  Level FlightAware ADS-B
Wed 05:32:38 PM 42.8296 -92.0478 95° East 492 566 39,000  Level FlightAware ADS-B (LPVM)
Wed 05:33:19 PM 42.8192 -91.8863 95° East 492 566 39,000  Level FlightAware ADS-B (LPVM)
Wed 05:33:50 PM 42.8133 -91.7946 95° East 492 566 39,000  Level FlightAware ADS-B (LPVM)
Wed 05:34:26 PM 42.8058 -91.6812 95° East 492 566 39,000  Level FlightAware ADS-B (LPVM)
Wed 05:34:59 PM 42.7991 -91.5825 95° East 491 565 39,000  Level FlightAware ADS-B (LPVM)
Wed 05:35:37 PM 42.7924 -91.4830 95° East 491 565 39,000  Level FlightAware ADS-B (LPVM)
Wed 05:36:28 PM 42.7804 -91.3101 95° East 491 565 39,000  Level FlightAware ADS-B (LPVM)
Wed 05:36:58 PM 42.7736 -91.2135 95° East 491 565 39,000  Level FlightAware ADS-B (LPVM)
Wed 05:37:29 PM 42.7670 -91.1206 96° East 491 565 39,000  Level FlightAware ADS-B (LPVM)
Wed 05:38:19 PM 42.7560 -90.9650 95° East 492 566 39,000  Level FlightAware ADS-B
Wed 05:38:52 PM 42.7490 -90.8670 96° East 492 566 39,000  Level FlightAware ADS-B
Wed 05:39:28 PM 42.7454 -90.8244 96° East 493 567 39,000  Level FlightAware ADS-B (LPVM)
Wed 05:40:04 PM 42.7320 -90.6460 96° East 493 567 39,000  Level FlightAware ADS-B
Wed 05:40:36 PM 42.7240 -90.5450 96° East 493 567 39,000  Level FlightAware ADS-B
Wed 05:41:13 PM 42.7160 -90.4330 96° East 493 567 39,000  Level FlightAware ADS-B
Wed 05:41:49 PM 42.7070 -90.3210 96° East 493 567 39,000  Level FlightAware ADS-B
Wed 05:42:18 PM 42.7000 -90.2320 96° East 494 568 39,000  Level FlightAware ADS-B
Wed 05:42:48 PM 42.6930 -90.1400 96° East 494 568 39,000  Level FlightAware ADS-B
Wed 05:43:25 PM 42.6830 -90.0270 97° East 493 567 39,000  Level FlightAware ADS-B
Wed 05:44:00 PM 42.6750 -89.9180 96° East 493 567 39,000  Level FlightAware ADS-B
Wed 05:44:37 PM 42.6650 -89.8060 97° East 493 567 39,000  Level FlightAware ADS-B
Wed 05:45:11 PM 42.6560 -89.7000 97° East 492 566 39,000  Level FlightAware ADS-B
Wed 05:45:46 PM 42.6480 -89.5970 96° East 491 565 39,000  Level FlightAware ADS-B
Wed 05:46:22 PM 42.6380 -89.4840 97° East 490 564 39,000  Level FlightAware ADS-B
Wed 05:46:56 PM 42.6290 -89.3820 97° East 490 564 39,000  Level FlightAware ADS-B
Wed 05:47:32 PM 42.6190 -89.2690 97° East 489 563 39,000  Level FlightAware ADS-B
Wed 05:48:07 PM 42.6100 -89.1640 97° East 489 563 39,000  Level FlightAware ADS-B
Wed 05:48:37 PM 42.6020 -89.0740 97° East 488 562 39,000  Level FlightAware ADS-B
Wed 05:49:18 PM 42.5900 -88.9490 97° East 487 560 39,000  Level FlightAware ADS-B
Wed 05:49:51 PM 42.5820 -88.8520 96° East 486 559 39,000  Level FlightAware ADS-B
Wed 05:50:25 PM 42.5720 -88.7450 97° East 486 559 39,000  Level FlightAware ADS-B
Wed 05:51:02 PM 42.5610 -88.6330 98° East 485 558 39,000  Level FlightAware ADS-B
Wed 05:51:37 PM 42.5520 -88.5290 97° East 485 558 39,000  Level FlightAware ADS-B
Wed 05:52:12 PM 42.5420 -88.4260 97° East 484 557 39,000  Level FlightAware ADS-B
Wed 05:52:48 PM 42.5310 -88.3160 98° East 484 557 39,000  Level FlightAware ADS-B
Wed 05:53:21 PM 42.5220 -88.2230 97° East 483 556 39,000  Level FlightAware ADS-B
Wed 05:53:58 PM 42.5110 -88.1060 97° East 482 555 39,000  Level FlightAware ADS-B
Wed 05:54:30 PM 42.5020 -88.0090 97° East 483 556 39,000  Level FlightAware ADS-B
Wed 05:55:06 PM 42.5000 -87.9040 91° East 485 558 39,000  Level FlightAware ADS-B
Wed 05:55:41 PM 42.5000 -87.7940 90° East 485 558 39,000  Level FlightAware ADS-B
Wed 05:56:18 PM 42.5000 -87.6830 90° East 485 558 39,000  Level FlightAware ADS-B
Wed 05:56:58 PM 42.4990 -87.5660 91° East 484 557 39,000  Level FlightAware ADS-B
Wed 05:57:33 PM 42.4990 -87.4580 90° East 483 556 39,000  Level FlightAware ADS-B
Wed 05:58:10 PM 42.4980 -87.3460 91° East 483 556 39,000  Level FlightAware ADS-B
Wed 05:58:46 PM 42.4980 -87.2360 90° East 483 556 39,000  Level FlightAware ADS-B
Wed 05:59:19 PM 42.4970 -87.1430 91° East 483 556 39,000  Level FlightAware ADS-B
Wed 05:59:56 PM 42.4960 -87.0280 91° East 483 556 39,000  Level FlightAware ADS-B
Wed 06:00:26 PM 42.4950 -86.9360 91° East 484 557 39,000  Level FlightAware ADS-B
Wed 06:01:04 PM 42.4940 -86.8190 91° East 485 558 39,000  Level FlightAware ADS-B
Wed 06:01:39 PM 42.4930 -86.7160 91° East 485 558 39,000  Level FlightAware ADS-B
Wed 06:02:16 PM 42.4920 -86.6050 91° East 486 559 39,000  Level FlightAware ADS-B
Wed 06:02:51 PM 42.4910 -86.5000 91° East 486 559 39,000  Level FlightAware ADS-B
Wed 06:03:24 PM 42.4890 -86.3990 92° East 486 559 39,000  Level FlightAware ADS-B
Wed 06:04:00 PM 42.4880 -86.2890 91° East 486 559 39,000  Level FlightAware ADS-B
Wed 06:04:34 PM 42.4860 -86.1890 92° East 487 560 39,000  Level FlightAware ADS-B
Wed 06:05:12 PM 42.4840 -86.0660 91° East 487 560 39,000  Level FlightAware ADS-B
Wed 06:05:43 PM 42.4830 -85.9710 91° East 488 562 39,000  Level FlightAware ADS-B
Wed 06:06:22 PM 42.4810 -85.8530 91° East 489 563 39,000  Level FlightAware ADS-B
Wed 06:06:54 PM 42.4790 -85.7560 92° East 489 563 39,000  Level FlightAware ADS-B
Wed 06:07:29 PM 42.4770 -85.6510 91° East 489 563 39,000  Level FlightAware ADS-B
Wed 06:08:04 PM 42.4740 -85.5420 92° East 489 563 39,000  Level FlightAware ADS-B
Wed 06:08:40 PM 42.4720 -85.4310 91° East 490 564 39,000  Level FlightAware ADS-B
Wed 06:09:14 PM 42.4700 -85.3290 91° East 490 564 39,000  Level FlightAware ADS-B
Wed 06:09:51 PM 42.4670 -85.2170 92° East 490 564 39,000  Level FlightAware ADS-B
Wed 06:10:24 PM 42.4650 -85.1150 91° East 490 564 39,000  Level FlightAware ADS-B
Wed 06:10:59 PM 42.4620 -85.0110 92° East 490 564 39,000  Level FlightAware ADS-B
Wed 06:11:36 PM 42.4590 -84.9010 92° East 489 563 39,000  Level FlightAware ADS-B
Wed 06:12:10 PM 42.4560 -84.7960 92° East 489 563 39,000  Level FlightAware ADS-B
Wed 06:12:43 PM 42.4530 -84.6920 92° East 489 563 39,000  Level FlightAware ADS-B
Wed 06:13:19 PM 42.4500 -84.5840 92° East 488 562 39,000  Level FlightAware ADS-B
Wed 06:13:52 PM 42.4430 -84.4820 95° East 486 559 39,000  Level FlightAware ADS-B
Wed 06:14:32 PM 42.4360 -84.3620 94° East 487 560 39,000  Level FlightAware ADS-B
Wed 06:15:04 PM 42.4300 -84.2650 95° East 487 560 39,000  Level FlightAware ADS-B
Wed 06:15:41 PM 42.4230 -84.1530 95° East 488 562 39,000  Level FlightAware ADS-B
Wed 06:16:16 PM 42.4160 -84.0430 95° East 487 560 39,000  Level FlightAware ADS-B
Wed 06:16:52 PM 42.4100 -83.9350 94° East 487 560 39,000  Level FlightAware ADS-B
Wed 06:17:25 PM 42.4040 -83.8360 95° East 487 560 39,000  Level FlightAware ADS-B
Wed 06:18:01 PM 42.3970 -83.7290 95° East 487 560 39,000  Level FlightAware ADS-B
Wed 06:18:36 PM 42.3900 -83.6200 95° East 487 560 39,000  Level FlightAware ADS-B
Wed 06:19:13 PM 42.3830 -83.5080 95° East 488 562 39,000  Level FlightAware ADS-B
Wed 06:19:44 PM 42.3760 -83.4110 96° East 488 562 39,000  Level FlightAware ADS-B
Wed 06:20:20 PM 42.3690 -83.3040 95° East 489 563 39,000  Level FlightAware ADS-B
Wed 06:20:56 PM 42.3610 -83.1950 96° East 489 563 39,000  Level FlightAware ADS-B
Wed 06:21:30 PM 42.3540 -83.0920 95° East 490 564 39,000  Level FlightAware ADS-B
Wed 06:22:07 PM 42.3460 -82.9790 95° East 490 564 39,000  Level FlightAware ADS-B
Wed 06:22:37 PM 42.3400 -82.8920 95° East 490 564 39,000  Level FlightAware ADS-B
Wed 06:23:16 PM 42.3310 -82.7690 96° East 489 563 39,000  Level FlightAware ADS-B
Wed 06:23:52 PM 42.3230 -82.6600 96° East 489 563 39,000  Level FlightAware ADS-B
Wed 06:24:26 PM 42.3160 -82.5590 95° East 489 563 39,000  Level FlightAware ADS-B
Wed 06:25:02 PM 42.3080 -82.4520 96° East 489 563 39,000  Level FlightAware ADS-B
Wed 06:25:37 PM 42.2990 -82.3420 96° East 489 563 39,000  Level FlightAware ADS-B
Wed 06:26:08 PM 42.2920 -82.2510 96° East 489 563 39,000  Level FlightAware ADS-B
Wed 06:26:46 PM 42.2830 -82.1360 96° East 489 563 39,000  Level FlightAware ADS-B
Wed 06:27:18 PM 42.2760 -82.0410 96° East 489 563 39,000  Level FlightAware ADS-B
Wed 06:27:55 PM 42.2670 -81.9270 96° East 488 562 39,000  Level FlightAware ADS-B
Wed 06:28:32 PM 42.2570 -81.8120 97° East 489 563 39,000  Level FlightAware ADS-B
Wed 06:29:06 PM 42.2490 -81.7070 96° East 489 563 39,000  Level FlightAware ADS-B
Wed 06:29:39 PM 42.2410 -81.6080 96° East 490 564 39,000  Level FlightAware ADS-B
Wed 06:30:16 PM 42.2310 -81.4960 97° East 490 564 39,000  Level FlightAware ADS-B
Wed 06:30:50 PM 42.2220 -81.3920 97° East 490 564 39,000  Level FlightAware ADS-B
Wed 06:31:27 PM 42.2130 -81.2800 96° East 490 564 39,000  Level FlightAware ADS-B
Wed 06:32:00 PM 42.2040 -81.1820 97° East 490 564 39,000  Level FlightAware ADS-B
Wed 06:32:34 PM 42.1950 -81.0760 97° East 490 564 39,000  Level FlightAware ADS-B
Wed 06:33:12 PM 42.1850 -80.9640 97° East 490 564 39,000  Level FlightAware ADS-B
Wed 06:33:47 PM 42.1760 -80.8580 97° East 490 564 39,000  Level FlightAware ADS-B
Wed 06:34:20 PM 42.1670 -80.7580 97° East 490 564 39,000  Level FlightAware ADS-B
Wed 06:34:55 PM 42.1570 -80.6510 97° East 490 564 39,000  Level FlightAware ADS-B
Wed 06:35:32 PM 42.1470 -80.5410 97° East 490 564 39,000  Level FlightAware ADS-B
Wed 06:36:07 PM 42.1370 -80.4320 97° East 491 565 39,000  Level FlightAware ADS-B
Wed 06:36:39 PM 42.1280 -80.3350 97° East 491 565 39,000  Level FlightAware ADS-B
Wed 06:37:17 PM 42.1170 -80.2220 97° East 493 567 39,000  Level FlightAware ADS-B
Wed 06:37:53 PM 42.1060 -80.1140 98° East 493 567 39,000  Level FlightAware ADS-B
Wed 06:38:23 PM 42.0970 -80.0200 97° East 494 568 39,000  Level FlightAware ADS-B
Wed 06:39:00 PM 42.0860 -79.9090 98° East 494 568 39,000  Level FlightAware ADS-B
Wed 06:39:37 PM 42.0760 -79.8000 97° East 494 568 39,000  Level FlightAware ADS-B
Wed 06:40:13 PM 42.0650 -79.6910 98° East 495 570 39,000  Level FlightAware ADS-B
Wed 06:40:44 PM 42.0550 -79.5920 98° East 495 570 39,000  Level FlightAware ADS-B
Wed 06:41:20 PM 42.0440 -79.4820 98° East 496 571 39,000  Level FlightAware ADS-B
Wed 06:41:55 PM 42.0330 -79.3810 98° East 496 571 39,000  Level FlightAware ADS-B
Wed 06:42:30 PM 42.0220 -79.2750 98° East 496 571 39,000  Level FlightAware ADS-B
Wed 06:43:05 PM 42.0110 -79.1640 98° East 497 572 39,000  Level FlightAware ADS-B
Wed 06:43:38 PM 42.0000 -79.0600 98° East 497 572 39,000  Level FlightAware ADS-B
Wed 06:44:18 PM 41.9870 -78.9390 98° East 498 573 39,000  Level FlightAware ADS-B
Wed 06:44:49 PM 41.9770 -78.8500 99° East 498 573 39,000  Level FlightAware ADS-B
Wed 06:45:26 PM 41.9640 -78.7320 98° East 498 573 39,000  Level FlightAware ADS-B
Wed 06:46:02 PM 41.9520 -78.6210 98° East 498 573 39,000  Level FlightAware ADS-B
Wed 06:46:38 PM 41.9400 -78.5120 98° East 498 573 39,000  Level FlightAware ADS-B
Wed 06:47:10 PM 41.9300 -78.4170 98° East 498 573 39,000  Level FlightAware ADS-B
Wed 06:47:47 PM 41.9170 -78.3070 99° East 498 573 39,000  Level FlightAware ADS-B
Wed 06:48:18 PM 41.9060 -78.2100 99° East 498 573 39,000  Level FlightAware ADS-B
Wed 06:48:55 PM 41.8930 -78.0940 99° East 498 573 39,000  Level FlightAware ADS-B
Wed 06:49:31 PM 41.8810 -77.9870 99° East 498 573 39,000  Level FlightAware ADS-B
Wed 06:50:07 PM 41.8660 -77.8740 100° East 497 572 39,000  Level FlightAware ADS-B
Wed 06:50:39 PM 41.8470 -77.7810 105° East 493 567 39,000  Level FlightAware ADS-B
Wed 06:51:17 PM 41.8180 -77.6700 109° East 492 566 39,000  Level FlightAware ADS-B
Wed 06:51:49 PM 41.7930 -77.5790 110° East 493 567 39,000  Level FlightAware ADS-B
Wed 06:52:27 PM 41.7640 -77.4700 110° East 494 568 39,000  Level FlightAware ADS-B
Wed 06:52:59 PM 41.7390 -77.3770 110° East 494 568 39,000  Level FlightAware ADS-B
Wed 06:53:35 PM 41.7120 -77.2730 109° East 495 570 39,000  Level FlightAware ADS-B
Wed 06:54:11 PM 41.6840 -77.1730 111° Southeast 495 570 39,000  Level FlightAware ADS-B
Wed 06:54:43 PM 41.6590 -77.0780 109° East 496 571 39,000  Level FlightAware ADS-B
Wed 06:55:23 PM 41.6280 -76.9660 110° East 495 570 39,000  Level FlightAware ADS-B
Wed 06:55:55 PM 41.6030 -76.8740 110° East 496 571 39,000  Level FlightAware ADS-B
Wed 06:56:31 PM 41.5800 -76.7880 110° East 497 572 39,000  Level FlightAware ADS-B
Wed 06:57:11 PM 41.5450 -76.6620 110° East 497 572 39,000  Level FlightAware ADS-B
Wed 06:57:54 PM 41.5090 -76.5310 110° East 498 573 39,000  Level FlightAware ADS-B
Wed 06:58:25 PM 41.4840 -76.4410 110° East 498 573 39,000  Level FlightAware ADS-B
Wed 06:59:02 PM 41.4560 -76.3400 110° East 499 574 39,000 -329 Level FlightAware ADS-B
Wed 06:59:38 PM 41.4260 -76.2310 110° East 499 574 38,600 -1,600 Descending FlightAware ADS-B
Wed 07:00:17 PM 41.3940 -76.1180 111° Southeast 503 579 37,000 -2,535 Descending FlightAware ADS-B
Wed 07:00:49 PM 41.3680 -76.0260 111° Southeast 506 582 35,600 -2,783 Descending FlightAware ADS-B
Wed 07:01:26 PM 41.3390 -75.9220 110° East 510 587 33,800 -2,957 Descending FlightAware ADS-B
Wed 07:01:58 PM 41.3120 -75.8280 111° Southeast 514 592 32,200 -3,351 Descending FlightAware ADS-B
Wed 07:02:43 PM 41.2720 -75.6910 111° Southeast 520 598 29,500 -3,600 Descending FlightAware ADS-B
Wed 07:03:18 PM 41.2400 -75.5920 113° Southeast 523 602 27,400 -3,403 Descending FlightAware ADS-B
Wed 07:03:50 PM 41.2080 -75.4950 114° Southeast 517 595 25,700 -2,873 Descending FlightAware ADS-B
Wed 07:04:29 PM 41.1720 -75.3870 114° Southeast 506 582 24,000 -2,229 Descending FlightAware ADS-B
Wed 07:05:00 PM 41.1420 -75.2990 114° Southeast 499 574 23,100 -923 Descending FlightAware ADS-B
Wed 07:05:34 PM 41.1090 -75.2020 114° Southeast 496 571 23,000 -85 Descending FlightAware ADS-B
Wed 07:06:11 PM 41.0760 -75.1020 114° Southeast 499 574 23,000  Level FlightAware ADS-B
Wed 07:06:45 PM 41.0410 -75.0020 115° Southeast 501 577 23,000  Level FlightAware ADS-B
Wed 07:07:23 PM 41.0070 -74.8940 113° Southeast 500 575 23,000 -493 Level FlightAware ADS-B
Wed 07:07:58 PM 40.9880 -74.7940 104° East 493 567 22,400 -943 Descending FlightAware ADS-B
Wed 07:08:33 PM 40.9760 -74.6890 99° East 470 541 21,900 -1,091 Descending FlightAware ADS-B
Wed 07:09:04 PM 40.9670 -74.6050 98° East 450 518 21,200 -1,500 Descending FlightAware ADS-B
Wed 07:09:41 PM 40.9560 -74.5050 98° East 432 497 20,200 -1,268 Descending FlightAware ADS-B
Wed 07:10:15 PM 40.9470 -74.4180 98° East 407 468 19,700 -842 Descending FlightAware ADS-B
Wed 07:10:38 PM 40.9370 -74.3680 105° East 396 456 19,400 -769 Descending FlightAware ADS-B
Wed 07:10:54 PM 40.9250 -74.3380 118° Southeast 389 448 19,200 -522 Descending FlightAware ADS-B
Wed 07:11:24 PM 40.8920 -74.2820 128° Southeast 375 432 19,000 -194 Descending FlightAware ADS-B
Wed 07:11:56 PM 40.8560 -74.2200 128° Southeast 374 430 19,000 -627 Level FlightAware ADS-B
Wed 07:12:31 PM 40.8190 -74.1570 128° Southeast 370 426 18,300 -1,309 Descending FlightAware ADS-B
Wed 07:12:51 PM 40.7976 -74.1203 128° Southeast 367 422 17,800 -1,459 Descending FlightAware ADS-B
Wed 07:13:08 PM 40.7805 -74.0915 128° Southeast 365 420 17,400 -1,565 Descending FlightAware ADS-B
Wed 07:13:14 PM 40.7726 -74.0810 135° Southeast 363 418 17,200 -1,714 Descending FlightAware ADS-B
Wed 07:13:36 PM 40.7415 -74.0576 150° Southeast 356 410 16,600 -1,610 Descending FlightAware ADS-B
Wed 07:13:55 PM 40.7115 -74.0458 163° South 354 407 16,100 -1,500 Descending FlightAware ADS-B
Wed 07:14:28 PM 40.6606 -74.0267 164° South 349 402 15,300 -1,412 Descending FlightAware ADS-B
Wed 07:15:20 PM 40.5830 -73.9960 163° South 345 397 14,100 -1,416 Descending FlightAware ADS-B
Wed 07:15:57 PM 40.5240 -73.9740 164° South 336 387 13,200 -1,180 Descending FlightAware ADS-B
Wed 07:16:21 PM 40.4910 -73.9530 154° Southeast 334 384 12,900 -1,180 Descending FlightAware ADS-B
Wed 07:16:58 PM 40.4500 -73.9030 137° Southeast 331 381 12,000 -1,562 Descending FlightAware ADS-B
Wed 07:17:34 PM 40.4090 -73.8530 137° Southeast 320 368 11,000 -1,606 Descending FlightAware ADS-B
Wed 07:18:09 PM 40.3740 -73.8080 136° Southeast 310 357 10,100 -1,636 Descending FlightAware ADS-B
Wed 07:18:29 PM 40.3540 -73.7810 134° Southeast 308 354 9,500 -1,784 Descending FlightAware ADS-B
Wed 07:18:46 PM 40.3370 -73.7590 135° Southeast 307 353 9,000 -2,057 Descending FlightAware ADS-B
Wed 07:19:04 PM 40.3180 -73.7350 136° Southeast 304 350 8,300 -2,229 Descending FlightAware ADS-B
Wed 07:19:21 PM 40.3020 -73.7140 135° Southeast 303 349 7,700 -2,276 Descending FlightAware ADS-B
Wed 07:19:33 PM 40.2940 -73.6930 117° Southeast 300 345 7,200 -2,526 Descending FlightAware ADS-B
Wed 07:19:40 PM 40.2920 -73.6810 102° East 297 342 6,900 -2,182 Descending FlightAware ADS-B
Wed 07:19:44 PM 40.2920 -73.6730 90° East 295 339 6,800 -1,920 Descending FlightAware ADS-B
Wed 07:20:05 PM 40.2990 -73.6430 73° East 281 323 6,100 -2,333 Descending FlightAware ADS-B
Wed 07:20:20 PM 40.3130 -73.6250 44° Northeast 270 311 5,400 -2,364 Descending FlightAware ADS-B
Wed 07:20:38 PM 40.3330 -73.6080 33° Northeast 264 304 4,800 -1,674 Descending FlightAware ADS-B
Wed 07:21:03 PM 40.3600 -73.5870 31° Northeast 262 302 4,200 -1,371 Descending FlightAware ADS-B
Wed 07:21:13 PM 40.3700 -73.5790 31° Northeast 262 302 4,000 -375 Descending FlightAware ADS-B
Wed 07:21:35 PM 40.3940 -73.5620 28° Northeast 263 303 4,000  Level FlightAware ADS-B
Wed 07:21:58 PM 40.4170 -73.5440 31° Northeast 261 300 4,000  Level FlightAware ADS-B
Wed 07:22:22 PM 40.4420 -73.5250 30° Northeast 262 302 4,000  Level FlightAware ADS-B
Wed 07:22:33 PM 40.4540 -73.5150 32° Northeast 261 300 4,000  Level FlightAware ADS-B
Wed 07:22:53 PM 40.4760 -73.4990 29° Northeast 261 300 4,000  Level FlightAware ADS-B
Wed 07:23:17 PM 40.5010 -73.4790 31° Northeast 264 304 4,000  Level FlightAware ADS-B
Wed 07:23:30 PM 40.5130 -73.4700 30° Northeast 264 304 4,000  Level FlightAware ADS-B
Wed 07:23:46 PM 40.5310 -73.4580 27° Northeast 262 302 4,000  Level FlightAware ADS-B
Wed 07:23:50 PM 40.5360 -73.4570 North 260 299 4,000  Level FlightAware ADS-B
Wed 07:23:54 PM 40.5410 -73.4560 North 258 297 4,000  Level FlightAware ADS-B
Wed 07:24:20 PM 40.5710 -73.4620 351° North 258 297 4,000  Level FlightAware ADS-B
Wed 07:24:40 PM 40.5940 -73.4670 351° North 255 293 4,000  Level FlightAware ADS-B
Wed 07:24:51 PM 40.6080 -73.4710 348° North 255 293 4,000 -486 Level FlightAware ADS-B
Wed 07:25:17 PM 40.6380 -73.4780 350° North 252 290 3,700 -933 Descending FlightAware ADS-B
Wed 07:25:36 PM 40.6590 -73.4820 352° North 251 289 3,300 -1,333 Descending FlightAware ADS-B
Wed 07:25:44 PM 40.6680 -73.4860 341° North 249 287 3,100 -900 Descending FlightAware ADS-B
Wed 07:25:56 PM 40.6790 -73.4960 325° Northwest 244 281 3,000 -207 Descending FlightAware ADS-B
Wed 07:26:13 PM 40.6920 -73.5160 311° West 236 272 3,000  Level FlightAware ADS-B
Wed 07:26:33 PM 40.7040 -73.5380 306° West 217 250 3,000  Level FlightAware ADS-B
Wed 07:26:54 PM 40.7160 -73.5570 310° West 203 234 3,000 -182 Level FlightAware ADS-B
Wed 07:27:06 PM 40.7260 -73.5650 329° Northwest 196 226 2,900 -563 Descending FlightAware ADS-B
Wed 07:27:26 PM 40.7420 -73.5770 330° Northwest 185 213 2,700 -500 Descending FlightAware ADS-B
Wed 07:27:42 PM 40.7530 -73.5850 331° Northwest 178 205 2,600 -500 Descending FlightAware ADS-B
Wed 07:28:02 PM 40.7670 -73.5960 329° Northwest 173 199 2,400 -643 Descending FlightAware ADS-B
Wed 07:28:10 PM 40.7720 -73.6010 323° Northwest 171 197 2,300 -1,059 Descending FlightAware ADS-B
Wed 07:28:19 PM 40.7760 -73.6110 298° West 168 193 2,100 -857 Descending FlightAware ADS-B
Wed 07:28:24 PM 40.7760 -73.6150 270° West 169 194 2,100 -231 Level FlightAware ADS-B
Wed 07:28:45 PM 40.7720 -73.6370 257° West 178 205 2,000 -162 Descending FlightAware ADS-B
Wed 07:29:01 PM 40.7680 -73.6530 252° West 179 206 2,000  Level FlightAware ADS-B
Wed 07:29:13 PM 40.7600 -73.6630 223° Southwest 185 213 2,000  Level FlightAware ADS-B
Wed 07:29:26 PM 40.7520 -73.6710 217° Southwest 188 216 2,000 -176 Level FlightAware ADS-B
Wed 07:29:47 PM 40.7360 -73.6840 212° Southwest 177 204 1,900 -533 Descending FlightAware ADS-B
Wed 07:30:11 PM 40.7200 -73.6960 210° Southwest 160 184 1,600 -698 Descending FlightAware ADS-B
Wed 07:30:30 PM 40.7080 -73.7050 210° Southwest 145 167 1,400 -581 Descending FlightAware ADS-B
Wed 07:30:42 PM 40.7020 -73.7110 217° Southwest 139 160 1,300 -667 Descending FlightAware ADS-B
Wed 07:31:06 PM 40.6890 -73.7210 210° Southwest 138 159 1,000 -783 Descending FlightAware ADS-B
Wed 07:31:28 PM 40.6760 -73.7300 208° Southwest 136 157 700 -727 Descending FlightAware ADS-B
Wed 07:31:39 PM 40.6700 -73.7350 212° Southwest 137 158 600 -563 Descending FlightAware ADS-B
Wed 07:32:00 PM 40.6590 -73.7440 212° Southwest 138 159 400 -732 Descending FlightAware ADS-B
Wed 07:32:20 PM 40.6480 -73.7530 212° Southwest 134 154 100 -900 Descending FlightAware ADS-B
Wed 07:32:44 PM 40.6360 -73.7620 210° Southwest 110 127 -250 Descending FlightAware ADS-B

Login

Don't have an account? Register now (free) for customized features, flight alerts, and more!